Sidney, MT

3:44 PM MDT on March 31, 2015 (GMT -0600)
Sidney-Richland Municipal | | Change Station
CLOSE
Current Station
Airport
Location: Sidney-Richland,
Elevation: 1985 ft
Nearby Weather Stations
Active Advisory: Fire Weather Warning

Elev 1985 ft 47.71 °N, 104.19 °W | Updated 9 minutes ago

Clear
Clear
77 °F
Feels Like 77 °F
N
12
Wind Variable Wind from SSW
Gusts 20 mph

Today
High -- | Low -- °F
--% Chance of Precip.
Yesterday
High -- | Low -- °F
Precip. -- in
6:37 AM 7:24 PM
Waxing Gibbous, 89% visible
Pressure 29.60 in
Visibility 10.0 miles
Clouds Clear
Dew Point 32 °F
Humidity 19%
Rainfall 0.00 in
Snow Depth Not available.
UV 4 out of 12
Pollen 5.10 out of 12
Air Quality Not available.
Flu Activity Not available.
METAR KSDY 312135Z AUTO 20010G17KT 160V230 10SM CLR 25/00 A2960 RMK AO1

More Conditions Fewer Conditions

Pressure 29.60 in
Visibility 10.0 miles
Clouds Clear
Dew Point 32 °F
Humidity 19%
Rainfall 0.00 in
Snow Depth Not available.
UV 4 out of 12
Pollen 5.10 out of 12
Air Quality Not available.
Flu Activity Not available.
METAR KSDY 312135Z AUTO 20010G17KT 160V230 10SM CLR 25/00 A2960 RMK AO1

More Conditions Fewer Conditions

10-Day Weather Forecast

Almanac

Astronomy

Mar. 31, 2015 Rise Set
Actual Time
Civil Twilight
Nautical Twilight
Astronomical Twilight
Moon
Length of Visible Light
Length of Day
Tomorrow will be .
, % of the Moon is Illuminated

Today's Extremes

State Highs State Lows

Community

WunderPhotos

Upload Photos

1,809,844 photos uploaded!

WunderBlogs® & News

Nearby

Air Quality

  Air Quality AQ Index Pollutant
Not available.

Snow Depth

Station Depth Elevation

Earthquake Activity

City Distance Mag. Time & Date
Minimum magnitude displayed is 2.5.

Coastal Water Temperatures

Place Temperature

Stations

Nearby Weather Stations

Station Location Temp. Windchill Dew Point Humidity Wind Precip. Elev Updated Type
                   
Fire Weather Warning
Statement as of 3:30 AM MDT on March 31, 2015

... Red flag warning remains in effect from noon today to 9 PM MDT
Wednesday for wind and low relative humidity for fire weather
zones 120... 122... 134... 135... 136 and 137...

A red flag warning remains in effect from noon today to 9 PM MDT
Wednesday.

* Affected area... fire weather zones 120... 122... 134... 135...
136 and 137.

* Winds... west 25 to 35 mph with gusts up to 50 mph.

* Relative humidity... as low as 16 percent.

* Impacts... the combination of dry fuels... strong winds... low
relative humidity... and warm temperatures can contribute to
extreme fire behavior.

Precautionary/preparedness actions...

Please advise the appropriate officials or fire crews in these
areas of this red flag warning.



Http://weather.Gov/Glasgow